sensor_id;sensor_type;location;lat;lon;timestamp;P1;durP1;ratioP1;P2;durP2;ratioP2
57025;SDS011;43961;52.940;6.834;2023-04-12T00:00:59;17.35;;;4.88;;
57025;SDS011;43961;52.940;6.834;2023-04-12T00:03:25;11.10;;;5.70;;
57025;SDS011;43961;52.940;6.834;2023-04-12T00:05:51;14.82;;;5.22;;
57025;SDS011;43961;52.940;6.834;2023-04-12T00:08:20;16.10;;;5.13;;
57025;SDS011;43961;52.940;6.834;2023-04-12T00:10:50;9.35;;;5.03;;
57025;SDS011;43961;52.940;6.834;2023-04-12T00:13:17;15.18;;;5.97;;
57025;SDS011;43961;52.940;6.834;2023-04-12T00:15:43;10.88;;;5.55;;
57025;SDS011;43961;52.940;6.834;2023-04-12T00:18:10;15.60;;;5.60;;
57025;SDS011;43961;52.940;6.834;2023-04-12T00:20:36;11.68;;;5.68;;
57025;SDS011;43961;52.940;6.834;2023-04-12T00:23:02;9.82;;;5.07;;
57025;SDS011;43961;52.940;6.834;2023-04-12T00:25:27;14.73;;;6.88;;
57025;SDS011;43961;52.940;6.834;2023-04-12T00:27:53;12.85;;;5.97;;
57025;SDS011;43961;52.940;6.834;2023-04-12T00:30:19;8.52;;;4.85;;
57025;SDS011;43961;52.940;6.834;2023-04-12T00:32:45;18.35;;;5.60;;
57025;SDS011;43961;52.940;6.834;2023-04-12T00:35:10;10.50;;;6.28;;
57025;SDS011;43961;52.940;6.834;2023-04-12T00:37:36;16.15;;;6.38;;
57025;SDS011;43961;52.940;6.834;2023-04-12T00:40:02;12.23;;;5.75;;
57025;SDS011;43961;52.940;6.834;2023-04-12T00:44:57;15.32;;;6.35;;
57025;SDS011;43961;52.940;6.834;2023-04-12T00:47:23;15.75;;;6.47;;
57025;SDS011;43961;52.940;6.834;2023-04-12T00:49:48;11.55;;;5.45;;
57025;SDS011;43961;52.940;6.834;2023-04-12T00:52:14;11.50;;;6.22;;
57025;SDS011;43961;52.940;6.834;2023-04-12T00:54:42;12.10;;;4.70;;
57025;SDS011;43961;52.940;6.834;2023-04-12T00:57:08;12.23;;;6.45;;
57025;SDS011;43961;52.940;6.834;2023-04-12T00:59:34;11.27;;;6.28;;
57025;SDS011;43961;52.940;6.834;2023-04-12T01:02:00;16.60;;;6.20;;
57025;SDS011;43961;52.940;6.834;2023-04-12T01:04:26;6.82;;;5.18;;
57025;SDS011;43961;52.940;6.834;2023-04-12T01:07:06;13.48;;;5.53;;
57025;SDS011;43961;52.940;6.834;2023-04-12T01:17:31;10.38;;;5.18;;
57025;SDS011;43961;52.940;6.834;2023-04-12T01:20:06;12.13;;;5.95;;
57025;SDS011;43961;52.940;6.834;2023-04-12T01:25:51;13.30;;;5.90;;
57025;SDS011;43961;52.940;6.834;2023-04-12T01:28:32;29.02;;;6.30;;
57025;SDS011;43961;52.940;6.834;2023-04-12T01:31:01;18.02;;;6.25;;
57025;SDS011;43961;52.940;6.834;2023-04-12T01:33:28;17.20;;;5.95;;
57025;SDS011;43961;52.940;6.834;2023-04-12T01:36:02;14.48;;;6.68;;
57025;SDS011;43961;52.940;6.834;2023-04-12T01:38:33;11.60;;;5.65;;
57025;SDS011;43961;52.940;6.834;2023-04-12T01:40:59;11.02;;;5.53;;
57025;SDS011;43961;52.940;6.834;2023-04-12T01:43:25;12.93;;;6.20;;
57025;SDS011;43961;52.940;6.834;2023-04-12T01:45:51;14.07;;;6.68;;
57025;SDS011;43961;52.940;6.834;2023-04-12T01:48:17;14.82;;;6.60;;
57025;SDS011;43961;52.940;6.834;2023-04-12T01:50:50;15.48;;;6.40;;
57025;SDS011;43961;52.940;6.834;2023-04-12T01:53:44;11.57;;;5.68;;
57025;SDS011;43961;52.940;6.834;2023-04-12T01:56:15;14.35;;;6.07;;
57025;SDS011;43961;52.940;6.834;2023-04-12T02:01:11;17.50;;;7.20;;
57025;SDS011;43961;52.940;6.834;2023-04-12T02:03:42;19.63;;;6.90;;
57025;SDS011;43961;52.940;6.834;2023-04-12T02:06:09;14.40;;;6.80;;
57025;SDS011;43961;52.940;6.834;2023-04-12T02:08:36;18.83;;;7.13;;
57025;SDS011;43961;52.940;6.834;2023-04-12T02:11:08;19.08;;;5.88;;
57025;SDS011;43961;52.940;6.834;2023-04-12T02:13:34;11.27;;;6.43;;
57025;SDS011;43961;52.940;6.834;2023-04-12T02:16:00;13.93;;;6.03;;
57025;SDS011;43961;52.940;6.834;2023-04-12T02:18:26;14.15;;;5.95;;
57025;SDS011;43961;52.940;6.834;2023-04-12T02:20:53;14.15;;;5.72;;
57025;SDS011;43961;52.940;6.834;2023-04-12T02:23:18;15.35;;;7.35;;
57025;SDS011;43961;52.940;6.834;2023-04-12T02:25:44;12.30;;;5.50;;
57025;SDS011;43961;52.940;6.834;2023-04-12T02:28:11;13.25;;;6.22;;
57025;SDS011;43961;52.940;6.834;2023-04-12T02:30:37;13.63;;;4.82;;
57025;SDS011;43961;52.940;6.834;2023-04-12T02:33:05;11.23;;;5.00;;
57025;SDS011;43961;52.940;6.834;2023-04-12T02:35:33;10.18;;;5.00;;
57025;SDS011;43961;52.940;6.834;2023-04-12T02:38:00;9.55;;;5.88;;
57025;SDS011;43961;52.940;6.834;2023-04-12T02:40:28;14.55;;;4.32;;
57025;SDS011;43961;52.940;6.834;2023-04-12T02:42:54;19.65;;;6.97;;
57025;SDS011;43961;52.940;6.834;2023-04-12T02:45:20;14.90;;;4.57;;
57025;SDS011;43961;52.940;6.834;2023-04-12T02:47:46;8.70;;;4.80;;
57025;SDS011;43961;52.940;6.834;2023-04-12T02:50:11;9.90;;;4.65;;
57025;SDS011;43961;52.940;6.834;2023-04-12T02:52:37;9.32;;;4.55;;
57025;SDS011;43961;52.940;6.834;2023-04-12T02:55:03;10.50;;;5.22;;
57025;SDS011;43961;52.940;6.834;2023-04-12T02:57:29;8.38;;;4.65;;
57025;SDS011;43961;52.940;6.834;2023-04-12T02:59:54;8.40;;;4.63;;
57025;SDS011;43961;52.940;6.834;2023-04-12T03:02:21;10.88;;;4.90;;
57025;SDS011;43961;52.940;6.834;2023-04-12T03:04:47;13.65;;;4.63;;
57025;SDS011;43961;52.940;6.834;2023-04-12T03:07:19;6.80;;;3.90;;
57025;SDS011;43961;52.940;6.834;2023-04-12T03:09:48;4.93;;;3.53;;
57025;SDS011;43961;52.940;6.834;2023-04-12T03:12:14;12.90;;;4.28;;
57025;SDS011;43961;52.940;6.834;2023-04-12T03:14:40;9.13;;;4.50;;
57025;SDS011;43961;52.940;6.834;2023-04-12T03:17:06;12.75;;;3.55;;
57025;SDS011;43961;52.940;6.834;2023-04-12T03:19:32;8.00;;;3.53;;
57025;SDS011;43961;52.940;6.834;2023-04-12T03:22:01;13.07;;;4.88;;
57025;SDS011;43961;52.940;6.834;2023-04-12T03:24:28;6.80;;;4.17;;
57025;SDS011;43961;52.940;6.834;2023-04-12T03:26:55;7.45;;;3.50;;
57025;SDS011;43961;52.940;6.834;2023-04-12T03:29:22;10.02;;;4.03;;
57025;SDS011;43961;52.940;6.834;2023-04-12T03:31:47;8.95;;;3.50;;
57025;SDS011;43961;52.940;6.834;2023-04-12T03:34:13;9.07;;;4.68;;
57025;SDS011;43961;52.940;6.834;2023-04-12T03:36:39;11.98;;;5.05;;
57025;SDS011;43961;52.940;6.834;2023-04-12T03:39:05;9.98;;;4.22;;
57025;SDS011;43961;52.940;6.834;2023-04-12T03:41:31;6.70;;;4.47;;
57025;SDS011;43961;52.940;6.834;2023-04-12T03:43:57;9.65;;;4.55;;
57025;SDS011;43961;52.940;6.834;2023-04-12T03:46:23;9.27;;;4.43;;
57025;SDS011;43961;52.940;6.834;2023-04-12T03:48:49;6.90;;;3.83;;
57025;SDS011;43961;52.940;6.834;2023-04-12T03:51:16;12.43;;;4.75;;
57025;SDS011;43961;52.940;6.834;2023-04-12T03:53:42;11.25;;;4.15;;
57025;SDS011;43961;52.940;6.834;2023-04-12T03:56:07;21.10;;;5.68;;
57025;SDS011;43961;52.940;6.834;2023-04-12T03:58:33;6.30;;;4.43;;
57025;SDS011;43961;52.940;6.834;2023-04-12T04:01:01;9.35;;;4.63;;
57025;SDS011;43961;52.940;6.834;2023-04-12T04:03:33;7.60;;;5.07;;
57025;SDS011;43961;52.940;6.834;2023-04-12T04:06:00;10.00;;;4.72;;
57025;SDS011;43961;52.940;6.834;2023-04-12T04:08:27;13.95;;;5.43;;
57025;SDS011;43961;52.940;6.834;2023-04-12T04:10:55;16.90;;;5.90;;
57025;SDS011;43961;52.940;6.834;2023-04-12T04:13:21;9.38;;;4.78;;
57025;SDS011;43961;52.940;6.834;2023-04-12T04:15:49;15.27;;;5.53;;
57025;SDS011;43961;52.940;6.834;2023-04-12T04:18:16;9.30;;;5.10;;
57025;SDS011;43961;52.940;6.834;2023-04-12T04:20:42;10.25;;;5.20;;
57025;SDS011;43961;52.940;6.834;2023-04-12T04:23:08;18.90;;;5.68;;
57025;SDS011;43961;52.940;6.834;2023-04-12T04:25:34;10.50;;;5.82;;
57025;SDS011;43961;52.940;6.834;2023-04-12T04:28:05;11.32;;;5.70;;
57025;SDS011;43961;52.940;6.834;2023-04-12T04:30:32;8.77;;;5.03;;
57025;SDS011;43961;52.940;6.834;2023-04-12T04:33:03;16.23;;;6.45;;
57025;SDS011;43961;52.940;6.834;2023-04-12T04:35:29;10.88;;;5.72;;
57025;SDS011;43961;52.940;6.834;2023-04-12T04:37:55;9.23;;;5.50;;
57025;SDS011;43961;52.940;6.834;2023-04-12T04:40:21;12.65;;;5.47;;
57025;SDS011;43961;52.940;6.834;2023-04-12T04:42:50;21.92;;;6.07;;
57025;SDS011;43961;52.940;6.834;2023-04-12T04:45:20;12.70;;;6.50;;
57025;SDS011;43961;52.940;6.834;2023-04-12T04:50:19;7.78;;;5.57;;
57025;SDS011;43961;52.940;6.834;2023-04-12T04:52:47;9.20;;;5.07;;
57025;SDS011;43961;52.940;6.834;2023-04-12T04:55:16;12.18;;;5.55;;
57025;SDS011;43961;52.940;6.834;2023-04-12T04:57:42;9.90;;;5.40;;
57025;SDS011;43961;52.940;6.834;2023-04-12T05:00:08;11.25;;;5.55;;
57025;SDS011;43961;52.940;6.834;2023-04-12T05:02:38;11.35;;;4.93;;
57025;SDS011;43961;52.940;6.834;2023-04-12T05:07:33;17.48;;;5.57;;
57025;SDS011;43961;52.940;6.834;2023-04-12T05:09:58;10.40;;;5.70;;
57025;SDS011;43961;52.940;6.834;2023-04-12T05:12:24;11.27;;;5.35;;
57025;SDS011;43961;52.940;6.834;2023-04-12T05:14:50;11.40;;;5.72;;
57025;SDS011;43961;52.940;6.834;2023-04-12T05:17:15;11.40;;;5.38;;
57025;SDS011;43961;52.940;6.834;2023-04-12T05:19:41;9.88;;;5.05;;
57025;SDS011;43961;52.940;6.834;2023-04-12T05:22:09;13.57;;;6.05;;
57025;SDS011;43961;52.940;6.834;2023-04-12T05:24:35;8.98;;;5.25;;
57025;SDS011;43961;52.940;6.834;2023-04-12T05:27:01;10.57;;;5.32;;
57025;SDS011;43961;52.940;6.834;2023-04-12T05:29:28;14.98;;;4.75;;
57025;SDS011;43961;52.940;6.834;2023-04-12T05:31:53;8.20;;;4.45;;
57025;SDS011;43961;52.940;6.834;2023-04-12T05:34:19;12.90;;;5.00;;
57025;SDS011;43961;52.940;6.834;2023-04-12T05:36:45;8.70;;;5.28;;
57025;SDS011;43961;52.940;6.834;2023-04-12T05:39:10;9.57;;;4.65;;
57025;SDS011;43961;52.940;6.834;2023-04-12T05:41:36;9.93;;;5.28;;
57025;SDS011;43961;52.940;6.834;2023-04-12T05:44:02;10.18;;;5.30;;
57025;SDS011;43961;52.940;6.834;2023-04-12T05:46:27;8.73;;;4.55;;
57025;SDS011;43961;52.940;6.834;2023-04-12T05:48:54;8.40;;;4.05;;
57025;SDS011;43961;52.940;6.834;2023-04-12T05:51:20;10.35;;;5.15;;
57025;SDS011;43961;52.940;6.834;2023-04-12T05:53:46;8.25;;;4.45;;
57025;SDS011;43961;52.940;6.834;2023-04-12T05:56:12;9.00;;;5.47;;
57025;SDS011;43961;52.940;6.834;2023-04-12T05:58:38;8.38;;;5.07;;
57025;SDS011;43961;52.940;6.834;2023-04-12T06:01:04;10.13;;;5.15;;
57025;SDS011;43961;52.940;6.834;2023-04-12T06:03:29;9.30;;;4.85;;
57025;SDS011;43961;52.940;6.834;2023-04-12T06:05:56;11.27;;;5.00;;
57025;SDS011;43961;52.940;6.834;2023-04-12T06:08:21;8.75;;;5.28;;
57025;SDS011;43961;52.940;6.834;2023-04-12T06:10:47;11.10;;;5.25;;
57025;SDS011;43961;52.940;6.834;2023-04-12T06:13:13;17.75;;;6.00;;
57025;SDS011;43961;52.940;6.834;2023-04-12T06:15:39;9.05;;;5.28;;
57025;SDS011;43961;52.940;6.834;2023-04-12T06:18:05;10.60;;;5.20;;
57025;SDS011;43961;52.940;6.834;2023-04-12T06:20:32;14.90;;;5.05;;
57025;SDS011;43961;52.940;6.834;2023-04-12T06:22:57;8.30;;;5.13;;
57025;SDS011;43961;52.940;6.834;2023-04-12T06:25:23;14.52;;;5.80;;
57025;SDS011;43961;52.940;6.834;2023-04-12T06:27:49;12.18;;;5.22;;
57025;SDS011;43961;52.940;6.834;2023-04-12T06:30:14;13.20;;;6.18;;
57025;SDS011;43961;52.940;6.834;2023-04-12T06:32:40;10.77;;;5.35;;
57025;SDS011;43961;52.940;6.834;2023-04-12T06:35:06;7.93;;;4.55;;
57025;SDS011;43961;52.940;6.834;2023-04-12T06:37:32;8.02;;;5.82;;
57025;SDS011;43961;52.940;6.834;2023-04-12T06:39:58;10.85;;;5.95;;
57025;SDS011;43961;52.940;6.834;2023-04-12T06:42:23;12.43;;;8.75;;
57025;SDS011;43961;52.940;6.834;2023-04-12T06:44:50;9.23;;;6.03;;
57025;SDS011;43961;52.940;6.834;2023-04-12T06:47:16;21.35;;;6.63;;
57025;SDS011;43961;52.940;6.834;2023-04-12T06:49:41;9.70;;;5.97;;
57025;SDS011;43961;52.940;6.834;2023-04-12T06:52:07;13.88;;;7.32;;
57025;SDS011;43961;52.940;6.834;2023-04-12T06:54:36;26.13;;;15.48;;
57025;SDS011;43961;52.940;6.834;2023-04-12T06:57:02;25.38;;;13.55;;
57025;SDS011;43961;52.940;6.834;2023-04-12T06:59:33;22.23;;;15.73;;
57025;SDS011;43961;52.940;6.834;2023-04-12T07:02:00;20.25;;;11.73;;
57025;SDS011;43961;52.940;6.834;2023-04-12T07:04:25;22.38;;;12.07;;
57025;SDS011;43961;52.940;6.834;2023-04-12T07:06:51;12.07;;;7.55;;
57025;SDS011;43961;52.940;6.834;2023-04-12T07:09:16;9.85;;;6.55;;
57025;SDS011;43961;52.940;6.834;2023-04-12T07:11:45;10.38;;;6.45;;
57025;SDS011;43961;52.940;6.834;2023-04-12T07:14:11;8.00;;;5.53;;
57025;SDS011;43961;52.940;6.834;2023-04-12T07:16:39;12.90;;;6.38;;
57025;SDS011;43961;52.940;6.834;2023-04-12T07:19:04;12.73;;;8.02;;
57025;SDS011;43961;52.940;6.834;2023-04-12T07:21:30;18.42;;;8.27;;
57025;SDS011;43961;52.940;6.834;2023-04-12T07:23:56;13.27;;;7.88;;
57025;SDS011;43961;52.940;6.834;2023-04-12T07:26:22;9.82;;;7.03;;
57025;SDS011;43961;52.940;6.834;2023-04-12T07:28:48;9.50;;;6.40;;
57025;SDS011;43961;52.940;6.834;2023-04-12T07:31:14;38.25;;;23.05;;
57025;SDS011;43961;52.940;6.834;2023-04-12T07:33:40;16.15;;;11.63;;
57025;SDS011;43961;52.940;6.834;2023-04-12T07:36:05;18.55;;;8.60;;
57025;SDS011;43961;52.940;6.834;2023-04-12T07:38:31;20.67;;;9.43;;
57025;SDS011;43961;52.940;6.834;2023-04-12T07:40:57;16.23;;;8.50;;
57025;SDS011;43961;52.940;6.834;2023-04-12T07:43:23;12.00;;;8.40;;
57025;SDS011;43961;52.940;6.834;2023-04-12T07:45:48;13.88;;;9.50;;
57025;SDS011;43961;52.940;6.834;2023-04-12T07:48:14;24.55;;;13.93;;
57025;SDS011;43961;52.940;6.834;2023-04-12T07:50:40;18.52;;;10.25;;
57025;SDS011;43961;52.940;6.834;2023-04-12T07:55:45;13.45;;;9.52;;
57025;SDS011;43961;52.940;6.834;2023-04-12T07:58:11;20.33;;;12.43;;
57025;SDS011;43961;52.940;6.834;2023-04-12T08:00:37;29.38;;;18.70;;
57025;SDS011;43961;52.940;6.834;2023-04-12T08:03:03;30.17;;;18.00;;
57025;SDS011;43961;52.940;6.834;2023-04-12T08:05:29;26.95;;;16.88;;
57025;SDS011;43961;52.940;6.834;2023-04-12T08:07:55;20.92;;;15.38;;
57025;SDS011;43961;52.940;6.834;2023-04-12T08:10:20;20.30;;;15.27;;
57025;SDS011;43961;52.940;6.834;2023-04-12T08:12:46;43.67;;;27.13;;
57025;SDS011;43961;52.940;6.834;2023-04-12T08:15:12;29.38;;;20.13;;
57025;SDS011;43961;52.940;6.834;2023-04-12T08:17:37;36.38;;;23.85;;
57025;SDS011;43961;52.940;6.834;2023-04-12T08:20:04;12.93;;;8.77;;
57025;SDS011;43961;52.940;6.834;2023-04-12T08:22:30;22.92;;;14.98;;
57025;SDS011;43961;52.940;6.834;2023-04-12T08:24:55;16.42;;;12.35;;
57025;SDS011;43961;52.940;6.834;2023-04-12T08:27:21;21.17;;;13.57;;
57025;SDS011;43961;52.940;6.834;2023-04-12T08:29:47;12.68;;;10.45;;
57025;SDS011;43961;52.940;6.834;2023-04-12T08:32:12;16.08;;;8.38;;
57025;SDS011;43961;52.940;6.834;2023-04-12T08:34:38;14.07;;;11.50;;
57025;SDS011;43961;52.940;6.834;2023-04-12T08:37:04;20.00;;;13.38;;
57025;SDS011;43961;52.940;6.834;2023-04-12T08:39:30;24.45;;;11.63;;
57025;SDS011;43961;52.940;6.834;2023-04-12T08:41:58;14.75;;;8.02;;
57025;SDS011;43961;52.940;6.834;2023-04-12T08:44:46;16.40;;;12.52;;
57025;SDS011;43961;52.940;6.834;2023-04-12T08:47:11;18.65;;;12.73;;
57025;SDS011;43961;52.940;6.834;2023-04-12T08:49:37;20.40;;;15.07;;
57025;SDS011;43961;52.940;6.834;2023-04-12T08:52:03;12.52;;;10.40;;
57025;SDS011;43961;52.940;6.834;2023-04-12T08:54:31;23.75;;;16.65;;
57025;SDS011;43961;52.940;6.834;2023-04-12T08:57:00;17.58;;;12.60;;
57025;SDS011;43961;52.940;6.834;2023-04-12T08:59:29;9.25;;;8.30;;
57025;SDS011;43961;52.940;6.834;2023-04-12T09:01:55;10.48;;;8.70;;
57025;SDS011;43961;52.940;6.834;2023-04-12T09:04:22;15.32;;;11.93;;
57025;SDS011;43961;52.940;6.834;2023-04-12T09:06:49;18.88;;;14.82;;
57025;SDS011;43961;52.940;6.834;2023-04-12T09:09:14;15.30;;;10.07;;
57025;SDS011;43961;52.940;6.834;2023-04-12T09:11:40;8.07;;;7.28;;
57025;SDS011;43961;52.940;6.834;2023-04-12T09:17:02;12.02;;;9.85;;
57025;SDS011;43961;52.940;6.834;2023-04-12T09:19:35;18.20;;;13.48;;
57025;SDS011;43961;52.940;6.834;2023-04-12T09:22:01;16.40;;;13.20;;
57025;SDS011;43961;52.940;6.834;2023-04-12T09:24:27;17.10;;;11.07;;
57025;SDS011;43961;52.940;6.834;2023-04-12T09:27:00;22.52;;;14.23;;
57025;SDS011;43961;52.940;6.834;2023-04-12T09:29:30;40.90;;;19.15;;
57025;SDS011;43961;52.940;6.834;2023-04-12T09:32:01;60.65;;;38.58;;
57025;SDS011;43961;52.940;6.834;2023-04-12T09:34:31;57.53;;;40.47;;
57025;SDS011;43961;52.940;6.834;2023-04-12T09:36:59;63.35;;;41.00;;
57025;SDS011;43961;52.940;6.834;2023-04-12T09:39:36;104.32;;;63.75;;
57025;SDS011;43961;52.940;6.834;2023-04-12T09:42:05;16.35;;;13.43;;
57025;SDS011;43961;52.940;6.834;2023-04-12T09:44:32;10.35;;;8.93;;
57025;SDS011;43961;52.940;6.834;2023-04-12T09:46:58;10.27;;;8.95;;
57025;SDS011;43961;52.940;6.834;2023-04-12T09:52:03;10.10;;;9.05;;
57025;SDS011;43961;52.940;6.834;2023-04-12T09:54:45;17.35;;;15.65;;
57025;SDS011;43961;52.940;6.834;2023-04-12T09:57:12;20.70;;;17.60;;
57025;SDS011;43961;52.940;6.834;2023-04-12T09:59:46;11.98;;;10.60;;
57025;SDS011;43961;52.940;6.834;2023-04-12T10:02:18;12.43;;;11.13;;
57025;SDS011;43961;52.940;6.834;2023-04-12T10:04:47;11.05;;;10.05;;
57025;SDS011;43961;52.940;6.834;2023-04-12T10:07:13;13.60;;;11.10;;
57025;SDS011;43961;52.940;6.834;2023-04-12T10:09:39;14.65;;;9.57;;
57025;SDS011;43961;52.940;6.834;2023-04-12T10:12:06;11.07;;;9.95;;
57025;SDS011;43961;52.940;6.834;2023-04-12T10:14:32;11.48;;;10.38;;
57025;SDS011;43961;52.940;6.834;2023-04-12T10:16:59;12.07;;;9.65;;
57025;SDS011;43961;52.940;6.834;2023-04-12T10:19:26;11.52;;;10.32;;
57025;SDS011;43961;52.940;6.834;2023-04-12T10:21:53;12.27;;;10.52;;
57025;SDS011;43961;52.940;6.834;2023-04-12T10:24:24;9.15;;;8.15;;
57025;SDS011;43961;52.940;6.834;2023-04-12T10:26:54;10.15;;;7.93;;
57025;SDS011;43961;52.940;6.834;2023-04-12T10:29:28;10.20;;;8.32;;
57025;SDS011;43961;52.940;6.834;2023-04-12T10:32:16;15.88;;;9.93;;
57025;SDS011;43961;52.940;6.834;2023-04-12T10:34:48;11.38;;;10.30;;
57025;SDS011;43961;52.940;6.834;2023-04-12T10:37:20;11.23;;;8.15;;
57025;SDS011;43961;52.940;6.834;2023-04-12T10:40:11;14.80;;;8.35;;
57025;SDS011;43961;52.940;6.834;2023-04-12T10:42:41;9.88;;;7.45;;
57025;SDS011;43961;52.940;6.834;2023-04-12T10:55:46;11.30;;;8.30;;
57025;SDS011;43961;52.940;6.834;2023-04-12T11:01:17;9.23;;;8.35;;
57025;SDS011;43961;52.940;6.834;2023-04-12T11:09:18;14.65;;;9.98;;
57025;SDS011;43961;52.940;6.834;2023-04-12T11:14:36;11.25;;;8.77;;
57025;SDS011;43961;52.940;6.834;2023-04-12T11:19:45;9.43;;;8.57;;
57025;SDS011;43961;52.940;6.834;2023-04-12T11:22:16;19.67;;;9.10;;
57025;SDS011;43961;52.940;6.834;2023-04-12T11:24:48;20.10;;;8.10;;
57025;SDS011;43961;52.940;6.834;2023-04-12T11:27:15;11.15;;;7.45;;
57025;SDS011;43961;52.940;6.834;2023-04-12T11:29:43;9.35;;;6.80;;
57025;SDS011;43961;52.940;6.834;2023-04-12T11:32:11;7.17;;;5.93;;
57025;SDS011;43961;52.940;6.834;2023-04-12T11:34:42;15.65;;;6.38;;
57025;SDS011;43961;52.940;6.834;2023-04-12T11:37:09;9.27;;;6.13;;
57025;SDS011;43961;52.940;6.834;2023-04-12T11:39:37;11.90;;;6.97;;
57025;SDS011;43961;52.940;6.834;2023-04-12T11:42:11;11.40;;;7.10;;
57025;SDS011;43961;52.940;6.834;2023-04-12T11:44:42;12.43;;;6.47;;
57025;SDS011;43961;52.940;6.834;2023-04-12T11:47:19;7.35;;;5.90;;
57025;SDS011;43961;52.940;6.834;2023-04-12T11:49:50;10.70;;;6.18;;
57025;SDS011;43961;52.940;6.834;2023-04-12T11:52:27;23.80;;;6.43;;
57025;SDS011;43961;52.940;6.834;2023-04-12T11:54:54;14.88;;;5.78;;
57025;SDS011;43961;52.940;6.834;2023-04-12T11:57:22;14.35;;;5.63;;
57025;SDS011;43961;52.940;6.834;2023-04-12T11:59:48;13.48;;;5.60;;
57025;SDS011;43961;52.940;6.834;2023-04-12T12:02:15;10.30;;;5.65;;
57025;SDS011;43961;52.940;6.834;2023-04-12T12:04:43;12.63;;;5.90;;
57025;SDS011;43961;52.940;6.834;2023-04-12T12:07:11;10.85;;;6.30;;
57025;SDS011;43961;52.940;6.834;2023-04-12T12:09:38;10.32;;;5.97;;
57025;SDS011;43961;52.940;6.834;2023-04-12T12:12:05;14.27;;;4.63;;
57025;SDS011;43961;52.940;6.834;2023-04-12T12:14:33;12.48;;;5.20;;
57025;SDS011;43961;52.940;6.834;2023-04-12T12:22:33;10.30;;;5.05;;
57025;SDS011;43961;52.940;6.834;2023-04-12T12:24:56;9.32;;;5.20;;
57025;SDS011;43961;52.940;6.834;2023-04-12T12:27:24;12.65;;;4.20;;
57025;SDS011;43961;52.940;6.834;2023-04-12T12:30:03;10.82;;;4.47;;
57025;SDS011;43961;52.940;6.834;2023-04-12T12:32:32;16.35;;;5.40;;
57025;SDS011;43961;52.940;6.834;2023-04-12T12:34:59;12.35;;;5.95;;
57025;SDS011;43961;52.940;6.834;2023-04-12T12:37:26;24.42;;;5.20;;
57025;SDS011;43961;52.940;6.834;2023-04-12T12:40:06;12.32;;;5.43;;
57025;SDS011;43961;52.940;6.834;2023-04-12T12:42:44;14.00;;;4.88;;
57025;SDS011;43961;52.940;6.834;2023-04-12T12:45:11;20.90;;;6.53;;
57025;SDS011;43961;52.940;6.834;2023-04-12T12:47:49;15.50;;;5.88;;
57025;SDS011;43961;52.940;6.834;2023-04-12T12:50:17;14.88;;;4.25;;
57025;SDS011;43961;52.940;6.834;2023-04-12T12:52:47;19.85;;;5.65;;
57025;SDS011;43961;52.940;6.834;2023-04-12T12:55:13;15.30;;;5.00;;
57025;SDS011;43961;52.940;6.834;2023-04-12T12:57:43;16.98;;;5.15;;
57025;SDS011;43961;52.940;6.834;2023-04-12T13:00:13;12.40;;;5.10;;
57025;SDS011;43961;52.940;6.834;2023-04-12T13:02:40;13.95;;;4.80;;
57025;SDS011;43961;52.940;6.834;2023-04-12T13:05:06;8.68;;;3.70;;
57025;SDS011;43961;52.940;6.834;2023-04-12T13:07:32;10.27;;;4.35;;
57025;SDS011;43961;52.940;6.834;2023-04-12T13:09:58;12.85;;;4.28;;
57025;SDS011;43961;52.940;6.834;2023-04-12T13:12:24;17.27;;;4.88;;
57025;SDS011;43961;52.940;6.834;2023-04-12T13:14:50;11.63;;;3.53;;
57025;SDS011;43961;52.940;6.834;2023-04-12T13:17:16;10.43;;;3.95;;
57025;SDS011;43961;52.940;6.834;2023-04-12T13:19:43;11.95;;;4.18;;
57025;SDS011;43961;52.940;6.834;2023-04-12T13:22:10;13.38;;;3.13;;
57025;SDS011;43961;52.940;6.834;2023-04-12T13:24:36;11.13;;;4.80;;
57025;SDS011;43961;52.940;6.834;2023-04-12T13:27:02;13.07;;;3.90;;
57025;SDS011;43961;52.940;6.834;2023-04-12T13:29:28;12.27;;;4.13;;
57025;SDS011;43961;52.940;6.834;2023-04-12T13:31:53;13.10;;;3.67;;
57025;SDS011;43961;52.940;6.834;2023-04-12T13:34:19;11.13;;;3.42;;
57025;SDS011;43961;52.940;6.834;2023-04-12T13:36:45;15.52;;;3.88;;
57025;SDS011;43961;52.940;6.834;2023-04-12T13:39:10;7.88;;;3.22;;
57025;SDS011;43961;52.940;6.834;2023-04-12T13:41:36;10.50;;;4.75;;
57025;SDS011;43961;52.940;6.834;2023-04-12T13:44:02;8.90;;;3.83;;
57025;SDS011;43961;52.940;6.834;2023-04-12T13:46:29;5.20;;;1.70;;
57025;SDS011;43961;52.940;6.834;2023-04-12T13:48:55;3.88;;;1.75;;
57025;SDS011;43961;52.940;6.834;2023-04-12T13:51:22;4.78;;;2.25;;
57025;SDS011;43961;52.940;6.834;2023-04-12T13:53:49;3.03;;;2.05;;
57025;SDS011;43961;52.940;6.834;2023-04-12T13:56:15;7.15;;;2.70;;
57025;SDS011;43961;52.940;6.834;2023-04-12T13:58:41;11.30;;;2.95;;
57025;SDS011;43961;52.940;6.834;2023-04-12T14:01:07;11.65;;;3.78;;
57025;SDS011;43961;52.940;6.834;2023-04-12T14:03:33;11.80;;;3.25;;
57025;SDS011;43961;52.940;6.834;2023-04-12T14:05:59;10.25;;;3.67;;
57025;SDS011;43961;52.940;6.834;2023-04-12T14:08:25;8.10;;;2.92;;
57025;SDS011;43961;52.940;6.834;2023-04-12T14:10:51;9.98;;;3.38;;
57025;SDS011;43961;52.940;6.834;2023-04-12T14:13:20;15.55;;;3.88;;
57025;SDS011;43961;52.940;6.834;2023-04-12T14:15:46;19.95;;;5.22;;
57025;SDS011;43961;52.940;6.834;2023-04-12T14:18:11;11.52;;;3.92;;
57025;SDS011;43961;52.940;6.834;2023-04-12T14:20:39;20.17;;;3.95;;
57025;SDS011;43961;52.940;6.834;2023-04-12T14:23:05;10.90;;;4.18;;
57025;SDS011;43961;52.940;6.834;2023-04-12T14:25:31;13.05;;;4.32;;
57025;SDS011;43961;52.940;6.834;2023-04-12T14:27:59;14.13;;;3.60;;
57025;SDS011;43961;52.940;6.834;2023-04-12T14:30:24;5.43;;;2.78;;
57025;SDS011;43961;52.940;6.834;2023-04-12T14:32:50;12.43;;;3.33;;
57025;SDS011;43961;52.940;6.834;2023-04-12T14:35:16;11.25;;;2.40;;
57025;SDS011;43961;52.940;6.834;2023-04-12T14:37:42;5.97;;;1.85;;
57025;SDS011;43961;52.940;6.834;2023-04-12T14:40:08;2.38;;;1.20;;
57025;SDS011;43961;52.940;6.834;2023-04-12T14:42:33;5.70;;;2.03;;
57025;SDS011;43961;52.940;6.834;2023-04-12T14:44:59;5.75;;;1.52;;
57025;SDS011;43961;52.940;6.834;2023-04-12T14:47:25;3.97;;;1.90;;
57025;SDS011;43961;52.940;6.834;2023-04-12T14:49:51;9.40;;;1.83;;
57025;SDS011;43961;52.940;6.834;2023-04-12T14:52:16;11.93;;;2.83;;
57025;SDS011;43961;52.940;6.834;2023-04-12T14:54:43;4.28;;;2.03;;
57025;SDS011;43961;52.940;6.834;2023-04-12T14:57:10;12.13;;;2.65;;
57025;SDS011;43961;52.940;6.834;2023-04-12T14:59:36;7.63;;;2.40;;
57025;SDS011;43961;52.940;6.834;2023-04-12T15:02:02;10.20;;;2.55;;
57025;SDS011;43961;52.940;6.834;2023-04-12T15:04:27;10.70;;;3.53;;
57025;SDS011;43961;52.940;6.834;2023-04-12T15:06:54;12.95;;;3.58;;
57025;SDS011;43961;52.940;6.834;2023-04-12T15:09:19;11.10;;;4.03;;
57025;SDS011;43961;52.940;6.834;2023-04-12T15:11:48;9.60;;;3.35;;
57025;SDS011;43961;52.940;6.834;2023-04-12T15:14:15;6.43;;;2.85;;
57025;SDS011;43961;52.940;6.834;2023-04-12T15:16:44;9.48;;;3.30;;
57025;SDS011;43961;52.940;6.834;2023-04-12T15:21:38;7.18;;;2.75;;
57025;SDS011;43961;52.940;6.834;2023-04-12T15:24:04;6.93;;;3.03;;
57025;SDS011;43961;52.940;6.834;2023-04-12T15:26:30;9.07;;;2.85;;
57025;SDS011;43961;52.940;6.834;2023-04-12T15:28:55;4.95;;;2.83;;
57025;SDS011;43961;52.940;6.834;2023-04-12T15:31:21;4.30;;;2.10;;
57025;SDS011;43961;52.940;6.834;2023-04-12T15:33:47;11.23;;;2.90;;
57025;SDS011;43961;52.940;6.834;2023-04-12T15:36:15;3.75;;;2.00;;
57025;SDS011;43961;52.940;6.834;2023-04-12T15:38:41;7.82;;;2.90;;